KUCY

Details ICAO KUCY
Name EVERETT STEWART
Region United States
Timezone America/Chicago (UTC-6.0)
Plans Departing 6
Arriving 5
Stats Elevation 335 ft / 102 m (AMSL)
Location 36.381792° -88.985421°
Runways 1
Magnetic Variation 2.198° W
Sunrise 2017-12-18 13:03:39 UTC / 2017-12-18 07:03:39 Local
Sunset 2017-12-18 22:44:24 UTC / 2017-12-18 16:44:24 Local
Advertisement - Login to hide

Runways

ID Width Length Bearing (true) Bearing (mag) Surface Threshold Offset Overrun Length
01 100 ft / 30 m 5,012 ft / 1,528 m 6.35° 8.55° Asphalt 0 ft / 0 m 0 ft / 0 m
19 100 ft / 30 m 5,012 ft / 1,528 m 186.35° 188.55° Asphalt 0 ft / 0 m 0 ft / 0 m

Approach Navaids

Runway Type Ident Frequency Range Bearing (true) Bearing (mag) Slope Elevation
01 Localiser IUCY 109.70 MHz 18 nm / 33 km 6.35° 8.54° - 308 ft / 94 m (AMSL)
01 Glidescope IUCY 109.70 MHz 10 nm / 19 km 6.35° 8.54° 3.00° 319 ft / 97 m (AMSL)

Map

Weather


0- 5 10 15 20 25 30 35+ Temperature / ° C

Clouds and Precipitation
Forecast for 2017-12-18 12:00 UTC. Updated 5 minutes ago

Ground ~20,000 ft ~40,000 ft Winds

METAR

KUCY 181115Z AUTO 25003KT 1 1/4SM BR OVC002 07/07 A3014 RMK A01

TAF

Not found

Frequencies

Recorded 135.32 MHz AWOS 3
Unicom 122.70 MHz CTAF/UNICOM
Warning: Do not use this data for real-world aviation or navigation. No guarantee of current accuracy is given.